METAR Data
IDs: Format: Raw Decoded Include TAF

Data at: 1430 UTC 27 Nov 2021

ETHN 271420Z 26004KT 8000 BKN001 SCT005CB 00/00 Q0992 RESHSN RED